sensor_id;sensor_type;location;lat;lon;timestamp;P1;durP1;ratioP1;P2;durP2;ratioP2
21517;SDS011;61765;45.794;24.150;2023-06-14T00:00:10;8.90;;;4.45;;
21517;SDS011;61765;45.794;24.150;2023-06-14T00:08:17;5.65;;;3.45;;
21517;SDS011;61765;45.794;24.150;2023-06-14T00:16:27;6.40;;;3.20;;
21517;SDS011;61765;45.794;24.150;2023-06-14T00:24:34;4.22;;;2.72;;
21517;SDS011;61765;45.794;24.150;2023-06-14T00:32:42;4.55;;;2.45;;
21517;SDS011;61765;45.794;24.150;2023-06-14T00:40:49;7.65;;;3.40;;
21517;SDS011;61765;45.794;24.150;2023-06-14T00:48:57;3.92;;;2.40;;
21517;SDS011;61765;45.794;24.150;2023-06-14T00:57:05;3.67;;;2.40;;
21517;SDS011;61765;45.794;24.150;2023-06-14T01:05:13;3.65;;;2.78;;
21517;SDS011;61765;45.794;24.150;2023-06-14T01:13:20;3.55;;;2.40;;
21517;SDS011;61765;45.794;24.150;2023-06-14T01:21:31;7.28;;;3.20;;
21517;SDS011;61765;45.794;24.150;2023-06-14T01:29:46;9.70;;;2.55;;
21517;SDS011;61765;45.794;24.150;2023-06-14T01:37:52;5.13;;;3.20;;
21517;SDS011;61765;45.794;24.150;2023-06-14T01:46:01;3.95;;;2.53;;
21517;SDS011;61765;45.794;24.150;2023-06-14T01:54:09;4.60;;;2.85;;
21517;SDS011;61765;45.794;24.150;2023-06-14T02:02:17;3.38;;;2.53;;
21517;SDS011;61765;45.794;24.150;2023-06-14T02:10:23;5.82;;;3.10;;
21517;SDS011;61765;45.794;24.150;2023-06-14T02:18:31;7.35;;;3.10;;
21517;SDS011;61765;45.794;24.150;2023-06-14T02:26:37;3.40;;;2.65;;
21517;SDS011;61765;45.794;24.150;2023-06-14T02:34:45;7.15;;;3.30;;
21517;SDS011;61765;45.794;24.150;2023-06-14T02:42:51;4.30;;;3.70;;
21517;SDS011;61765;45.794;24.150;2023-06-14T02:50:59;10.45;;;4.88;;
21517;SDS011;61765;45.794;24.150;2023-06-14T02:59:05;6.68;;;3.67;;
21517;SDS011;61765;45.794;24.150;2023-06-14T03:07:15;4.30;;;3.20;;
21517;SDS011;61765;45.794;24.150;2023-06-14T03:15:25;4.57;;;3.17;;
21517;SDS011;61765;45.794;24.150;2023-06-14T03:23:34;4.80;;;3.20;;
21517;SDS011;61765;45.794;24.150;2023-06-14T03:31:41;4.05;;;2.92;;
21517;SDS011;61765;45.794;24.150;2023-06-14T03:40:12;5.53;;;3.83;;
21517;SDS011;61765;45.794;24.150;2023-06-14T03:48:25;5.78;;;3.47;;
21517;SDS011;61765;45.794;24.150;2023-06-14T03:56:34;5.57;;;3.88;;
21517;SDS011;61765;45.794;24.150;2023-06-14T04:04:44;4.78;;;3.50;;
21517;SDS011;61765;45.794;24.150;2023-06-14T04:12:53;5.55;;;3.70;;
21517;SDS011;61765;45.794;24.150;2023-06-14T04:20:58;3.30;;;3.00;;
21517;SDS011;61765;45.794;24.150;2023-06-14T04:29:07;9.48;;;3.85;;
21517;SDS011;61765;45.794;24.150;2023-06-14T04:37:16;5.07;;;3.60;;
21517;SDS011;61765;45.794;24.150;2023-06-14T04:45:25;5.43;;;3.38;;
21517;SDS011;61765;45.794;24.150;2023-06-14T04:53:34;7.97;;;3.13;;
21517;SDS011;61765;45.794;24.150;2023-06-14T05:01:43;7.18;;;3.30;;
21517;SDS011;61765;45.794;24.150;2023-06-14T05:09:51;7.15;;;3.38;;
21517;SDS011;61765;45.794;24.150;2023-06-14T05:17:59;5.18;;;3.00;;
21517;SDS011;61765;45.794;24.150;2023-06-14T05:26:05;9.13;;;3.75;;
21517;SDS011;61765;45.794;24.150;2023-06-14T05:34:13;8.25;;;3.70;;
21517;SDS011;61765;45.794;24.150;2023-06-14T05:42:18;7.57;;;3.78;;
21517;SDS011;61765;45.794;24.150;2023-06-14T05:50:27;5.85;;;4.18;;
21517;SDS011;61765;45.794;24.150;2023-06-14T05:58:32;9.38;;;4.72;;
21517;SDS011;61765;45.794;24.150;2023-06-14T06:06:40;5.13;;;4.55;;
21517;SDS011;61765;45.794;24.150;2023-06-14T06:14:45;7.00;;;5.20;;
21517;SDS011;61765;45.794;24.150;2023-06-14T06:22:53;7.88;;;4.40;;
21517;SDS011;61765;45.794;24.150;2023-06-14T06:30:59;7.95;;;4.68;;
21517;SDS011;61765;45.794;24.150;2023-06-14T06:39:08;8.00;;;5.32;;
21517;SDS011;61765;45.794;24.150;2023-06-14T06:47:14;7.80;;;4.47;;
21517;SDS011;61765;45.794;24.150;2023-06-14T06:55:22;8.07;;;5.07;;
21517;SDS011;61765;45.794;24.150;2023-06-14T07:03:28;10.57;;;4.75;;
21517;SDS011;61765;45.794;24.150;2023-06-14T07:11:36;6.38;;;4.80;;
21517;SDS011;61765;45.794;24.150;2023-06-14T07:19:41;7.18;;;4.00;;
21517;SDS011;61765;45.794;24.150;2023-06-14T07:27:52;7.65;;;4.10;;
21517;SDS011;61765;45.794;24.150;2023-06-14T07:35:57;7.63;;;4.47;;
21517;SDS011;61765;45.794;24.150;2023-06-14T07:44:05;4.72;;;3.83;;
21517;SDS011;61765;45.794;24.150;2023-06-14T07:52:12;5.68;;;3.65;;
21517;SDS011;61765;45.794;24.150;2023-06-14T08:00:20;5.30;;;3.83;;
21517;SDS011;61765;45.794;24.150;2023-06-14T08:08:26;5.05;;;3.42;;
21517;SDS011;61765;45.794;24.150;2023-06-14T08:16:34;7.30;;;3.95;;
21517;SDS011;61765;45.794;24.150;2023-06-14T08:24:40;5.13;;;3.60;;
21517;SDS011;61765;45.794;24.150;2023-06-14T08:32:48;5.35;;;3.13;;
21517;SDS011;61765;45.794;24.150;2023-06-14T08:41:11;4.22;;;2.85;;
21517;SDS011;61765;45.794;24.150;2023-06-14T08:49:24;4.97;;;3.95;;
21517;SDS011;61765;45.794;24.150;2023-06-14T08:57:31;4.25;;;3.10;;
21517;SDS011;61765;45.794;24.150;2023-06-14T09:05:41;4.40;;;3.38;;
21517;SDS011;61765;45.794;24.150;2023-06-14T09:13:48;3.28;;;2.55;;
21517;SDS011;61765;45.794;24.150;2023-06-14T09:21:57;4.05;;;2.58;;
21517;SDS011;61765;45.794;24.150;2023-06-14T09:30:02;4.55;;;2.33;;
21517;SDS011;61765;45.794;24.150;2023-06-14T09:38:13;7.43;;;3.40;;
21517;SDS011;61765;45.794;24.150;2023-06-14T09:46:18;5.70;;;3.05;;
21517;SDS011;61765;45.794;24.150;2023-06-14T09:54:27;2.42;;;2.22;;
21517;SDS011;61765;45.794;24.150;2023-06-14T10:02:34;4.28;;;2.60;;
21517;SDS011;61765;45.794;24.150;2023-06-14T10:10:46;9.38;;;2.92;;
21517;SDS011;61765;45.794;24.150;2023-06-14T10:18:53;2.22;;;1.83;;
21517;SDS011;61765;45.794;24.150;2023-06-14T10:27:12;3.28;;;2.53;;
21517;SDS011;61765;45.794;24.150;2023-06-14T10:35:20;4.22;;;3.17;;
21517;SDS011;61765;45.794;24.150;2023-06-14T10:43:28;3.47;;;2.97;;
21517;SDS011;61765;45.794;24.150;2023-06-14T10:51:38;3.35;;;2.25;;
21517;SDS011;61765;45.794;24.150;2023-06-14T10:59:51;2.95;;;2.35;;
21517;SDS011;61765;45.794;24.150;2023-06-14T11:16:31;4.03;;;2.33;;
21517;SDS011;61765;45.794;24.150;2023-06-14T11:24:37;3.95;;;2.72;;
21517;SDS011;61765;45.794;24.150;2023-06-14T11:32:45;5.05;;;3.00;;
21517;SDS011;61765;45.794;24.150;2023-06-14T11:40:53;4.03;;;2.75;;
21517;SDS011;61765;45.794;24.150;2023-06-14T11:49:06;3.70;;;2.90;;
21517;SDS011;61765;45.794;24.150;2023-06-14T11:57:12;7.10;;;3.00;;
21517;SDS011;61765;45.794;24.150;2023-06-14T12:05:20;5.55;;;3.03;;
21517;SDS011;61765;45.794;24.150;2023-06-14T12:13:26;4.63;;;2.88;;
21517;SDS011;61765;45.794;24.150;2023-06-14T12:21:34;4.80;;;3.60;;
21517;SDS011;61765;45.794;24.150;2023-06-14T12:29:43;5.55;;;3.90;;
21517;SDS011;61765;45.794;24.150;2023-06-14T12:37:51;3.58;;;2.97;;
21517;SDS011;61765;45.794;24.150;2023-06-14T12:45:57;4.78;;;3.83;;
21517;SDS011;61765;45.794;24.150;2023-06-14T12:54:06;3.75;;;2.70;;
21517;SDS011;61765;45.794;24.150;2023-06-14T13:02:15;4.50;;;3.22;;
21517;SDS011;61765;45.794;24.150;2023-06-14T13:10:29;5.43;;;2.90;;
21517;SDS011;61765;45.794;24.150;2023-06-14T13:18:34;4.38;;;2.80;;
21517;SDS011;61765;45.794;24.150;2023-06-14T13:26:42;2.92;;;2.42;;
21517;SDS011;61765;45.794;24.150;2023-06-14T13:34:48;2.97;;;2.63;;
21517;SDS011;61765;45.794;24.150;2023-06-14T13:42:56;5.38;;;3.72;;
21517;SDS011;61765;45.794;24.150;2023-06-14T13:51:02;3.78;;;3.20;;
21517;SDS011;61765;45.794;24.150;2023-06-14T13:59:12;3.67;;;2.95;;
21517;SDS011;61765;45.794;24.150;2023-06-14T14:07:18;5.63;;;2.80;;
21517;SDS011;61765;45.794;24.150;2023-06-14T14:15:26;4.68;;;2.85;;
21517;SDS011;61765;45.794;24.150;2023-06-14T14:23:31;3.80;;;2.85;;
21517;SDS011;61765;45.794;24.150;2023-06-14T14:31:40;5.15;;;2.72;;
21517;SDS011;61765;45.794;24.150;2023-06-14T14:39:45;4.20;;;3.50;;
21517;SDS011;61765;45.794;24.150;2023-06-14T14:47:53;6.13;;;3.20;;
21517;SDS011;61765;45.794;24.150;2023-06-14T14:55:59;3.60;;;3.28;;
21517;SDS011;61765;45.794;24.150;2023-06-14T15:04:10;5.20;;;3.40;;
21517;SDS011;61765;45.794;24.150;2023-06-14T15:12:16;4.32;;;3.15;;
21517;SDS011;61765;45.794;24.150;2023-06-14T15:20:24;5.00;;;3.20;;
21517;SDS011;61765;45.794;24.150;2023-06-14T15:28:29;3.72;;;2.90;;
21517;SDS011;61765;45.794;24.150;2023-06-14T15:36:38;3.45;;;2.72;;
21517;SDS011;61765;45.794;24.150;2023-06-14T15:44:43;5.00;;;3.30;;
21517;SDS011;61765;45.794;24.150;2023-06-14T15:52:51;6.45;;;3.63;;
21517;SDS011;61765;45.794;24.150;2023-06-14T16:00:57;5.45;;;3.20;;
21517;SDS011;61765;45.794;24.150;2023-06-14T16:09:05;5.65;;;2.67;;
21517;SDS011;61765;45.794;24.150;2023-06-14T16:17:10;3.15;;;2.60;;
21517;SDS011;61765;45.794;24.150;2023-06-14T16:25:18;3.67;;;3.00;;
21517;SDS011;61765;45.794;24.150;2023-06-14T16:33:24;7.57;;;3.45;;
21517;SDS011;61765;45.794;24.150;2023-06-14T16:41:32;3.33;;;2.30;;
21517;SDS011;61765;45.794;24.150;2023-06-14T16:49:38;6.93;;;3.53;;
21517;SDS011;61765;45.794;24.150;2023-06-14T16:57:46;5.05;;;2.58;;
21517;SDS011;61765;45.794;24.150;2023-06-14T17:05:54;5.72;;;3.55;;
21517;SDS011;61765;45.794;24.150;2023-06-14T17:14:03;6.18;;;3.70;;
21517;SDS011;61765;45.794;24.150;2023-06-14T17:22:09;5.03;;;3.75;;
21517;SDS011;61765;45.794;24.150;2023-06-14T17:30:17;5.57;;;3.70;;
21517;SDS011;61765;45.794;24.150;2023-06-14T17:38:23;4.43;;;3.03;;
21517;SDS011;61765;45.794;24.150;2023-06-14T17:46:33;8.02;;;3.63;;
21517;SDS011;61765;45.794;24.150;2023-06-14T17:54:39;5.63;;;4.25;;
21517;SDS011;61765;45.794;24.150;2023-06-14T18:02:47;7.20;;;3.95;;
21517;SDS011;61765;45.794;24.150;2023-06-14T18:10:55;7.15;;;3.67;;
21517;SDS011;61765;45.794;24.150;2023-06-14T18:19:09;6.10;;;3.70;;
21517;SDS011;61765;45.794;24.150;2023-06-14T18:27:23;6.32;;;3.72;;
21517;SDS011;61765;45.794;24.150;2023-06-14T18:35:36;5.90;;;4.00;;
21517;SDS011;61765;45.794;24.150;2023-06-14T18:43:42;8.85;;;4.47;;
21517;SDS011;61765;45.794;24.150;2023-06-14T18:51:52;7.53;;;4.85;;
21517;SDS011;61765;45.794;24.150;2023-06-14T18:59:58;8.90;;;5.65;;
21517;SDS011;61765;45.794;24.150;2023-06-14T19:08:09;8.23;;;4.93;;
21517;SDS011;61765;45.794;24.150;2023-06-14T19:16:18;11.05;;;4.75;;
21517;SDS011;61765;45.794;24.150;2023-06-14T19:24:44;11.77;;;6.10;;
21517;SDS011;61765;45.794;24.150;2023-06-14T19:32:50;6.68;;;5.03;;
21517;SDS011;61765;45.794;24.150;2023-06-14T19:40:58;6.10;;;4.40;;
21517;SDS011;61765;45.794;24.150;2023-06-14T19:49:05;8.73;;;5.10;;
21517;SDS011;61765;45.794;24.150;2023-06-14T19:57:13;6.88;;;5.70;;
21517;SDS011;61765;45.794;24.150;2023-06-14T20:05:19;6.30;;;5.18;;
21517;SDS011;61765;45.794;24.150;2023-06-14T20:13:27;8.15;;;5.10;;
21517;SDS011;61765;45.794;24.150;2023-06-14T20:21:35;7.68;;;5.03;;
21517;SDS011;61765;45.794;24.150;2023-06-14T20:29:43;5.95;;;4.68;;
21517;SDS011;61765;45.794;24.150;2023-06-14T20:37:48;8.07;;;5.13;;
21517;SDS011;61765;45.794;24.150;2023-06-14T20:45:57;8.70;;;5.63;;
21517;SDS011;61765;45.794;24.150;2023-06-14T20:54:02;8.23;;;4.95;;
21517;SDS011;61765;45.794;24.150;2023-06-14T21:02:14;11.00;;;6.28;;
21517;SDS011;61765;45.794;24.150;2023-06-14T21:10:19;10.48;;;6.05;;
21517;SDS011;61765;45.794;24.150;2023-06-14T21:18:27;11.35;;;6.95;;
21517;SDS011;61765;45.794;24.150;2023-06-14T21:26:33;12.10;;;7.00;;
21517;SDS011;61765;45.794;24.150;2023-06-14T21:34:41;9.88;;;6.53;;
21517;SDS011;61765;45.794;24.150;2023-06-14T21:42:47;9.52;;;6.43;;
21517;SDS011;61765;45.794;24.150;2023-06-14T21:50:55;11.38;;;7.07;;
21517;SDS011;61765;45.794;24.150;2023-06-14T21:59:00;10.45;;;6.60;;
21517;SDS011;61765;45.794;24.150;2023-06-14T22:07:10;9.90;;;6.53;;
21517;SDS011;61765;45.794;24.150;2023-06-14T22:15:16;9.15;;;5.43;;
21517;SDS011;61765;45.794;24.150;2023-06-14T22:23:25;7.88;;;5.30;;
21517;SDS011;61765;45.794;24.150;2023-06-14T22:31:41;9.32;;;5.50;;
21517;SDS011;61765;45.794;24.150;2023-06-14T22:39:49;8.70;;;5.30;;
21517;SDS011;61765;45.794;24.150;2023-06-14T22:47:55;10.07;;;5.93;;
21517;SDS011;61765;45.794;24.150;2023-06-14T22:56:03;10.43;;;5.72;;
21517;SDS011;61765;45.794;24.150;2023-06-14T23:04:09;9.52;;;5.85;;
21517;SDS011;61765;45.794;24.150;2023-06-14T23:12:17;11.75;;;5.55;;
21517;SDS011;61765;45.794;24.150;2023-06-14T23:20:23;8.55;;;5.43;;
21517;SDS011;61765;45.794;24.150;2023-06-14T23:28:33;9.40;;;6.03;;
21517;SDS011;61765;45.794;24.150;2023-06-14T23:36:40;9.57;;;5.95;;
21517;SDS011;61765;45.794;24.150;2023-06-14T23:44:52;7.25;;;5.50;;
21517;SDS011;61765;45.794;24.150;2023-06-14T23:52:58;7.30;;;5.53;;
